Main page
METAR-TAF:

METAR-TAF

Airports :

Eloy Alfaro International Airport

Manta, Ecuador

latitude: 00-57S, longitude: 080-41W, elevation: 13 m

Current weather observation

The report was made 46 minutes ago, at 23:00 UTC
Wind 12 kt from the South/Southwest
Temperature 24°C
Humidity 74%
Pressure 1011 hPa
Visibility 10 km or more
Few clouds at a height of 2300 ft
Scattered clouds at a height of 10000 ft

METAR: SEMT 252300Z 21012KT 9999 FEW023 SCT100 24/19 Q1011 RMK A2986

Time: 18:46 (23:46 UTC)

Forecast

The report was made 1 hour and 36 minutes ago, at 22:10 UTC
Forecast valid from 26 at 00 UTC to 26 at 24 UTC
Wind 8 kt from the South/Southwest
Visibility 10 km or more
Overcast at a height of 2000 ft
Becoming
from 26 at 13 UTC to 26 at 15 UTC
Broken clouds at a height of 2300 ft
Becoming
from 26 at 19 UTC to 26 at 21 UTC
Wind 10 kt from the West
Few clouds at a height of 2300 ft

TAF: SEMT 252210Z 2600/2624 21008KT 9999 OVC020 BECMG 2613/2615 BKN023 BECMG 2619/2621 27010KT FEW023 TX29/2620Z TN23/2610Z

Weather observations and forecasts of more than 4000 airports (METAR and TAF reports).

The available stations are represented by yellow and red dots on the map.

Hover mouse over dot to see the name of the station.

Then click to see weather observations and forecasts.

To change the map : click on the green buttons with a black cross to zoom in, on the green button with a dash to zoom out, or on the green arrows for adjacent maps.


METAR-TAF: